Decoded Metar for KMEH (MEACHAM in OR, USA) (IATA:MEH) | Meteo·Mobile Aviation Weather
aviador You're here:

KMEH Decoded Metar

MEACHAM in OR, USA
Report Time2019-04-23 15:56:00
UTC Time2019-04-23 16:38:53
Flight Rules mvfr MVFR
WindCalm
Visibility9999 m
Phenomena:N/A
Clouds:Overcast 020 Hf
Expected CloudBase > 1,200 ft AGL from Temp-Dew spread
Ceiling2,000 ft
Temp12°C (ISA +4)
Dew Point09°C (82% RH)
AAT11.8°C
QNH1022 hPa
Density Alt4,111 ft
Elevation3,727 ft
Report Wrong Elevation
Raw Report
KMEH 231556Z AUTO 00000KT 10SM OVC020 12/09 A3018 RMK AO2 SLP217
T01170094=

Extra information for KMEH:More info

Metar Taf Metar & Taf Last 4 Metars F.Rules Stats Wind Profile Meteogram Temp Stats Airport Information Weather charts Add Link Nearby VenuesMetar ALERT Operation Metar Decoded Social comments

AIRNAV info for KMEH